createdAt,value
2022-12-27T00:00:00.639Z,59.8
2022-12-27T00:01:00.786Z,59.8
2022-12-27T00:02:00.578Z,59.8
2022-12-27T00:03:00.425Z,59.7
2022-12-27T00:04:00.403Z,59.6
2022-12-27T00:05:00.375Z,59.6
2022-12-27T00:06:00.654Z,59.6
2022-12-27T00:07:00.402Z,59.7
2022-12-27T00:08:00.444Z,59.6
2022-12-27T00:09:00.401Z,59.6
2022-12-27T00:10:00.409Z,59.6
2022-12-27T00:11:00.407Z,59.7
2022-12-27T00:12:00.509Z,59.6
2022-12-27T00:13:00.412Z,59.7
2022-12-27T00:14:00.408Z,59.7
2022-12-27T00:15:00.415Z,59.7
2022-12-27T00:16:00.683Z,59.7
2022-12-27T00:17:00.467Z,59.6
2022-12-27T00:18:00.497Z,59.5
2022-12-27T00:19:00.398Z,59.5
2022-12-27T00:20:04.029Z,59.5
2022-12-27T00:21:00.399Z,59.6
2022-12-27T00:22:00.406Z,59.6
2022-12-27T00:23:00.441Z,59.7
2022-12-27T00:24:00.613Z,59.7
2022-12-27T00:25:00.406Z,59.7
2022-12-27T00:26:00.396Z,59.7
2022-12-27T00:27:00.389Z,59.7
2022-12-27T00:28:00.434Z,59.7
2022-12-27T00:29:00.507Z,59.6
2022-12-27T00:30:00.736Z,59.7
2022-12-27T00:31:00.531Z,59.7
2022-12-27T00:32:00.905Z,59.7
2022-12-27T00:33:00.432Z,59.7
2022-12-27T00:34:00.449Z,59.6
2022-12-27T00:35:00.458Z,59.6
2022-12-27T00:36:00.595Z,59.7
2022-12-27T00:37:00.376Z,59.5
2022-12-27T00:38:00.427Z,59.5
2022-12-27T00:39:00.486Z,59.6
2022-12-27T00:40:00.405Z,59.6
2022-12-27T00:41:00.453Z,59.5
2022-12-27T00:42:00.631Z,59.4
2022-12-27T00:43:00.485Z,59.4
2022-12-27T00:44:00.375Z,59.5
2022-12-27T00:45:00.380Z,59.5
2022-12-27T00:46:00.457Z,59.4
2022-12-27T00:47:00.600Z,59.3
2022-12-27T00:48:00.423Z,59.3
2022-12-27T00:49:00.434Z,59.3
2022-12-27T00:50:00.374Z,59.4
2022-12-27T00:51:00.434Z,59.3
2022-12-27T00:52:00.401Z,59.3
2022-12-27T00:53:00.381Z,59.2
2022-12-27T00:54:00.528Z,59.1
2022-12-27T00:55:00.411Z,59.1
2022-12-27T00:56:00.407Z,59.1
2022-12-27T00:57:00.386Z,59.2
2022-12-27T00:58:00.411Z,59.1
2022-12-27T00:59:00.446Z,59.0
2022-12-27T01:00:06.180Z,59.1
2022-12-27T01:01:00.541Z,59.1
2022-12-27T01:02:00.782Z,59.1
2022-12-27T01:03:00.403Z,58.8
2022-12-27T01:04:00.460Z,58.9
2022-12-27T01:05:00.424Z,59.0
2022-12-27T01:06:00.595Z,58.9
2022-12-27T01:07:00.459Z,59.0
2022-12-27T01:08:00.483Z,59.0
2022-12-27T01:09:00.441Z,59.0
2022-12-27T01:10:00.493Z,58.9
2022-12-27T01:11:00.509Z,58.9
2022-12-27T01:12:00.561Z,58.9
2022-12-27T01:13:00.405Z,58.9
2022-12-27T01:14:00.393Z,58.9
2022-12-27T01:15:00.417Z,58.8
2022-12-27T01:16:00.408Z,58.8
2022-12-27T01:17:00.572Z,58.7
2022-12-27T01:18:00.479Z,58.6
2022-12-27T01:19:00.433Z,58.6
2022-12-27T01:20:00.372Z,58.5
2022-12-27T01:21:00.433Z,58.5
2022-12-27T01:22:00.408Z,58.4
2022-12-27T01:23:00.406Z,58.5
2022-12-27T01:24:00.531Z,58.4
2022-12-27T01:25:00.430Z,58.4
2022-12-27T01:26:00.377Z,58.4
2022-12-27T01:27:00.407Z,58.4
2022-12-27T01:28:00.399Z,58.4
2022-12-27T01:29:00.457Z,58.4
2022-12-27T01:30:00.556Z,58.4
2022-12-27T01:31:00.411Z,58.5
2022-12-27T01:32:00.622Z,58.5
2022-12-27T01:33:00.495Z,58.5
2022-12-27T01:34:00.483Z,58.5
2022-12-27T01:35:00.514Z,58.4
2022-12-27T01:36:00.611Z,58.3
2022-12-27T01:37:00.454Z,58.3
2022-12-27T01:38:00.488Z,58.3
2022-12-27T01:39:00.398Z,58.3
2022-12-27T01:40:00.435Z,58.4
2022-12-27T01:41:00.576Z,58.4
2022-12-27T01:42:00.594Z,58.5
2022-12-27T01:43:00.389Z,58.4
2022-12-27T01:44:00.454Z,58.4
2022-12-27T01:45:00.378Z,58.4
2022-12-27T01:46:00.420Z,58.4
2022-12-27T01:47:00.554Z,58.3
2022-12-27T01:48:00.616Z,58.3
2022-12-27T01:49:03.244Z,58.2
2022-12-27T01:50:00.406Z,58.2
2022-12-27T01:51:00.402Z,58.1
2022-12-27T01:52:00.436Z,58.2
2022-12-27T01:53:00.411Z,58.2
2022-12-27T01:54:00.525Z,58.2
2022-12-27T01:55:00.406Z,58.2
2022-12-27T01:56:00.420Z,58.4
2022-12-27T01:57:00.438Z,58.4
2022-12-27T01:58:00.374Z,58.2
2022-12-27T01:59:00.430Z,58.1
2022-12-27T02:00:00.527Z,58.1
2022-12-27T02:01:00.515Z,58.2
2022-12-27T02:02:00.762Z,58.2
2022-12-27T02:03:00.400Z,58.2
2022-12-27T02:04:00.463Z,58.1
2022-12-27T02:05:00.479Z,58.1
2022-12-27T02:06:00.559Z,58.0
2022-12-27T02:07:00.483Z,58.0
2022-12-27T02:08:00.406Z,57.9
2022-12-27T02:09:00.469Z,57.9
2022-12-27T02:10:00.498Z,57.9
2022-12-27T02:11:00.375Z,57.7
2022-12-27T02:12:00.607Z,57.6
2022-12-27T02:13:00.410Z,57.7
2022-12-27T02:14:00.437Z,57.7
2022-12-27T02:15:00.380Z,57.6
2022-12-27T02:16:00.439Z,57.5
2022-12-27T02:17:00.547Z,57.4
2022-12-27T02:18:00.491Z,57.4
2022-12-27T02:19:00.410Z,57.3
2022-12-27T02:20:00.406Z,57.0
2022-12-27T02:21:00.407Z,56.7
2022-12-27T02:22:00.384Z,56.7
2022-12-27T02:23:00.453Z,56.7
2022-12-27T02:24:00.580Z,56.8
2022-12-27T02:25:00.410Z,56.8
2022-12-27T02:26:00.421Z,56.6
2022-12-27T02:27:00.436Z,56.5
2022-12-27T02:28:00.860Z,56.4
2022-12-27T02:29:00.438Z,56.5
2022-12-27T02:30:00.594Z,56.5
2022-12-27T02:31:00.506Z,56.6
2022-12-27T02:32:00.446Z,56.6
2022-12-27T02:33:00.547Z,56.5
2022-12-27T02:34:00.375Z,56.4
2022-12-27T02:35:00.399Z,56.3
2022-12-27T02:36:00.583Z,56.2
2022-12-27T02:37:00.464Z,56.4
2022-12-27T02:38:00.440Z,56.5
2022-12-27T02:39:00.432Z,56.6
2022-12-27T02:40:00.418Z,56.4
2022-12-27T02:41:00.409Z,56.3
2022-12-27T02:42:00.643Z,56.4
2022-12-27T02:43:00.463Z,56.4
2022-12-27T02:44:00.412Z,56.3
2022-12-27T02:45:00.439Z,56.3
2022-12-27T02:46:00.452Z,56.2
2022-12-27T02:47:00.380Z,56.2
2022-12-27T02:48:00.767Z,56.2
2022-12-27T02:49:00.475Z,56.1
2022-12-27T02:50:00.428Z,55.9
2022-12-27T02:51:00.428Z,55.8
2022-12-27T02:52:00.435Z,55.7
2022-12-27T02:53:00.439Z,55.8
2022-12-27T02:54:00.521Z,55.8
2022-12-27T02:55:00.411Z,55.8
2022-12-27T02:56:00.381Z,56.0
2022-12-27T02:57:00.433Z,56.1
2022-12-27T02:58:00.372Z,56.1
2022-12-27T02:59:00.417Z,56.1
2022-12-27T03:00:00.556Z,56.0
2022-12-27T03:01:00.419Z,55.9
2022-12-27T03:02:00.535Z,55.9
2022-12-27T03:03:00.460Z,55.8
2022-12-27T03:04:00.472Z,55.8
2022-12-27T03:05:00.525Z,55.7
2022-12-27T03:06:00.507Z,55.6
2022-12-27T03:07:00.463Z,55.5
2022-12-27T03:08:00.488Z,55.5
2022-12-27T03:09:00.425Z,55.6
2022-12-27T03:10:00.463Z,55.7
2022-12-27T03:11:00.428Z,55.7
2022-12-27T03:12:00.535Z,55.6
2022-12-27T03:13:00.394Z,55.5
2022-12-27T03:14:00.424Z,55.5
2022-12-27T03:15:00.407Z,55.3
2022-12-27T03:16:00.453Z,55.3
2022-12-27T03:17:00.404Z,55.3
2022-12-27T03:18:00.669Z,55.3
2022-12-27T03:19:00.436Z,55.2
2022-12-27T03:20:00.409Z,55.3
2022-12-27T03:21:00.442Z,55.3
2022-12-27T03:22:00.407Z,55.2
2022-12-27T03:23:00.377Z,55.1
2022-12-27T03:24:00.539Z,55.0
2022-12-27T03:25:00.449Z,55.0
2022-12-27T03:26:00.379Z,55.0
2022-12-27T03:27:00.408Z,54.9
2022-12-27T03:28:00.404Z,54.9
2022-12-27T03:29:00.412Z,54.9
2022-12-27T03:30:00.532Z,55.0
2022-12-27T03:31:00.441Z,55.0
2022-12-27T03:32:00.441Z,54.9
2022-12-27T03:33:00.431Z,54.9
2022-12-27T03:34:00.430Z,54.9
2022-12-27T03:35:00.436Z,54.9
2022-12-27T03:36:00.609Z,54.8
2022-12-27T03:37:00.573Z,54.8
2022-12-27T03:38:00.449Z,54.8
2022-12-27T03:39:00.489Z,54.7
2022-12-27T03:40:00.471Z,54.6
2022-12-27T03:41:00.376Z,54.7
2022-12-27T03:42:00.607Z,54.6
2022-12-27T03:43:00.454Z,54.6
2022-12-27T03:44:00.384Z,54.6
2022-12-27T03:45:00.441Z,54.6
2022-12-27T03:46:00.429Z,54.6
2022-12-27T03:47:00.436Z,54.7
2022-12-27T03:48:00.664Z,54.7
2022-12-27T03:49:00.414Z,54.7
2022-12-27T03:50:00.408Z,54.7
2022-12-27T03:51:00.420Z,54.6
2022-12-27T03:52:00.539Z,54.7
2022-12-27T03:53:00.518Z,54.6
2022-12-27T03:54:00.550Z,54.7
2022-12-27T03:55:00.406Z,54.8
2022-12-27T03:56:00.429Z,54.8
2022-12-27T03:57:00.410Z,54.9
2022-12-27T03:58:00.433Z,54.9
2022-12-27T03:59:00.463Z,54.9
2022-12-27T04:00:00.583Z,54.9
2022-12-27T04:01:00.481Z,54.8
2022-12-27T04:02:00.515Z,54.8
2022-12-27T04:03:00.535Z,54.8
2022-12-27T04:04:00.431Z,54.9
2022-12-27T04:05:00.451Z,54.8
2022-12-27T04:06:00.585Z,54.7
2022-12-27T04:07:00.417Z,54.6
2022-12-27T04:08:00.598Z,54.6
2022-12-27T04:09:00.400Z,54.6
2022-12-27T04:10:00.386Z,54.6
2022-12-27T04:11:00.404Z,54.6
2022-12-27T04:12:00.499Z,54.6
2022-12-27T04:13:00.398Z,54.7
2022-12-27T04:14:00.422Z,54.8
2022-12-27T04:15:00.378Z,55.0
2022-12-27T04:16:00.497Z,55.0
2022-12-27T04:17:00.451Z,55.1
2022-12-27T04:18:00.534Z,55.0
2022-12-27T04:19:00.371Z,54.9
2022-12-27T04:20:00.435Z,54.8
2022-12-27T04:21:00.415Z,55.0
2022-12-27T04:22:00.405Z,55.0
2022-12-27T04:23:00.541Z,55.0
2022-12-27T04:24:00.554Z,55.0
2022-12-27T04:25:00.486Z,55.0
2022-12-27T04:26:00.421Z,55.0
2022-12-27T04:27:00.511Z,54.9
2022-12-27T04:28:00.430Z,54.8
2022-12-27T04:29:00.481Z,54.9
2022-12-27T04:30:00.567Z,54.9
2022-12-27T04:31:00.413Z,55.0
2022-12-27T04:32:00.407Z,55.0
2022-12-27T04:33:00.441Z,55.0
2022-12-27T04:34:00.407Z,55.0
2022-12-27T04:35:00.409Z,55.0
2022-12-27T04:36:06.021Z,55.0
2022-12-27T04:37:00.413Z,55.1
2022-12-27T04:38:00.378Z,55.0
2022-12-27T04:39:00.506Z,54.9
2022-12-27T04:40:00.475Z,54.5
2022-12-27T04:41:00.400Z,54.2
2022-12-27T04:42:00.510Z,53.8
2022-12-27T04:43:00.421Z,53.8
2022-12-27T04:44:00.451Z,53.9
2022-12-27T04:45:00.423Z,53.9
2022-12-27T04:46:00.415Z,53.9
2022-12-27T04:47:00.407Z,53.9
2022-12-27T04:48:00.546Z,54.0
2022-12-27T04:49:00.441Z,54.0
2022-12-27T04:50:00.413Z,53.9
2022-12-27T04:51:00.443Z,54.0
2022-12-27T04:52:00.403Z,54.0
2022-12-27T04:53:00.394Z,54.0
2022-12-27T04:54:00.626Z,54.0
2022-12-27T04:55:00.480Z,53.9
2022-12-27T04:56:00.469Z,53.8
2022-12-27T04:57:00.417Z,53.7
2022-12-27T04:58:00.513Z,53.7
2022-12-27T04:59:00.411Z,53.7
2022-12-27T05:00:00.515Z,53.7
2022-12-27T05:01:00.438Z,53.6
2022-12-27T05:02:00.564Z,53.7
2022-12-27T05:03:00.621Z,53.7
2022-12-27T05:04:00.442Z,53.7
2022-12-27T05:05:00.430Z,53.5
2022-12-27T05:06:00.563Z,53.5
2022-12-27T05:07:00.489Z,53.4
2022-12-27T05:08:00.393Z,53.3
2022-12-27T05:09:00.454Z,53.3
2022-12-27T05:10:00.636Z,53.3
2022-12-27T05:11:00.405Z,53.3
2022-12-27T05:12:00.659Z,53.3
2022-12-27T05:13:00.401Z,53.1
2022-12-27T05:14:00.414Z,52.9
2022-12-27T05:15:00.401Z,52.8
2022-12-27T05:16:00.492Z,52.8
2022-12-27T05:17:00.431Z,52.9
2022-12-27T05:18:00.550Z,52.8
2022-12-27T05:19:00.403Z,52.8
2022-12-27T05:20:00.378Z,52.8
2022-12-27T05:21:00.483Z,52.7
2022-12-27T05:22:00.413Z,52.5
2022-12-27T05:23:00.411Z,52.3
2022-12-27T05:24:05.411Z,52.4
2022-12-27T05:25:00.524Z,52.3
2022-12-27T05:26:00.401Z,51.9
2022-12-27T05:27:00.377Z,51.7
2022-12-27T05:28:00.495Z,51.6
2022-12-27T05:29:00.379Z,51.5
2022-12-27T05:30:00.517Z,51.3
2022-12-27T05:31:00.464Z,51.3
2022-12-27T05:32:00.458Z,51.0
2022-12-27T05:33:00.376Z,50.6
2022-12-27T05:34:00.441Z,50.0
2022-12-27T05:35:00.441Z,49.5
2022-12-27T05:36:00.604Z,49.5
2022-12-27T05:37:00.399Z,49.0
2022-12-27T05:38:00.401Z,48.1
2022-12-27T05:39:00.408Z,47.1
2022-12-27T05:40:00.590Z,46.2
2022-12-27T05:41:00.438Z,45.3
2022-12-27T05:42:00.524Z,44.4
2022-12-27T05:43:00.446Z,43.4
2022-12-27T05:44:06.516Z,42.0
2022-12-27T05:45:00.397Z,40.4
2022-12-27T05:46:00.375Z,39.6
2022-12-27T05:47:00.506Z,39.6
2022-12-27T05:48:00.559Z,38.8
2022-12-27T05:49:00.379Z,37.8
2022-12-27T05:50:00.412Z,36.7
2022-12-27T05:51:00.431Z,36.1
2022-12-27T05:52:00.415Z,35.0
2022-12-27T05:53:00.414Z,34.4
2022-12-27T05:54:00.534Z,34.0
2022-12-27T05:55:00.635Z,31.9
2022-12-27T05:56:00.432Z,32.1
2022-12-27T05:57:00.381Z,31.9
2022-12-27T05:58:00.402Z,32.4
2022-12-27T05:59:00.399Z,32.9
2022-12-27T06:00:00.696Z,33.7
2022-12-27T06:01:00.374Z,33.4
2022-12-27T06:02:00.626Z,33.1
2022-12-27T06:03:00.463Z,33.8
2022-12-27T06:04:00.378Z,33.7
2022-12-27T06:05:00.411Z,33.6
2022-12-27T06:06:00.568Z,33.2
2022-12-27T06:07:00.419Z,33.1
2022-12-27T06:08:00.454Z,32.8
2022-12-27T06:09:00.385Z,32.1
2022-12-27T06:10:00.499Z,31.2
2022-12-27T06:11:00.511Z,30.2
2022-12-27T06:12:00.469Z,29.1
2022-12-27T06:13:00.423Z,28.1
2022-12-27T06:14:00.408Z,26.9
2022-12-27T06:15:00.372Z,26.5
2022-12-27T06:16:00.504Z,26.1
2022-12-27T06:17:00.444Z,25.0
2022-12-27T06:18:00.514Z,25.3
2022-12-27T06:19:00.493Z,26.7
2022-12-27T06:20:00.491Z,28.7
2022-12-27T06:21:00.465Z,30.1
2022-12-27T06:22:00.394Z,31.3
2022-12-27T06:23:00.405Z,32.2
2022-12-27T06:24:00.567Z,33.0
2022-12-27T06:25:00.386Z,34.0
2022-12-27T06:26:00.470Z,34.9
2022-12-27T06:27:00.404Z,36.1
2022-12-27T06:28:00.404Z,36.9
2022-12-27T06:29:00.387Z,37.8
2022-12-27T06:30:00.564Z,38.7
2022-12-27T06:31:00.414Z,39.9
2022-12-27T06:32:00.499Z,40.7
2022-12-27T06:33:00.405Z,41.2
2022-12-27T06:34:00.405Z,41.5
2022-12-27T06:35:00.382Z,41.5
2022-12-27T06:36:00.791Z,41.6
2022-12-27T06:37:00.395Z,41.7
2022-12-27T06:38:00.493Z,42.0
2022-12-27T06:39:00.379Z,42.4
2022-12-27T06:40:00.470Z,42.7
2022-12-27T06:41:00.612Z,42.9
2022-12-27T06:42:00.844Z,43.0
2022-12-27T06:43:00.381Z,42.9
2022-12-27T06:44:00.403Z,43.1
2022-12-27T06:45:00.409Z,43.0
2022-12-27T06:46:00.483Z,42.9
2022-12-27T06:47:00.416Z,42.9
2022-12-27T06:48:00.549Z,43.0
2022-12-27T06:49:00.409Z,43.1
2022-12-27T06:50:00.399Z,43.2
2022-12-27T06:51:00.424Z,43.5
2022-12-27T06:52:00.545Z,43.9
2022-12-27T06:54:00.504Z,44.2
2022-12-27T06:55:00.409Z,44.3
2022-12-27T06:56:00.552Z,44.4
2022-12-27T06:58:00.603Z,44.3
2022-12-27T06:59:00.385Z,44.7
2022-12-27T07:00:00.542Z,46.9
2022-12-27T07:02:00.550Z,45.2
2022-12-27T07:03:00.470Z,44.8
2022-12-27T07:06:00.520Z,45.3
2022-12-27T07:07:00.446Z,45.3
2022-12-27T07:08:00.409Z,45.4
2022-12-27T07:09:00.482Z,45.4
2022-12-27T07:10:00.441Z,45.6
2022-12-27T07:11:00.439Z,45.8
2022-12-27T07:12:00.586Z,46.1
2022-12-27T07:13:00.535Z,46.0
2022-12-27T07:14:00.581Z,46.1
2022-12-27T07:15:00.421Z,46.2
2022-12-27T07:16:00.541Z,46.4
2022-12-27T07:17:00.610Z,46.5
2022-12-27T07:18:00.629Z,46.5
2022-12-27T07:19:00.717Z,46.5
2022-12-27T07:20:00.522Z,46.5
2022-12-27T07:21:00.400Z,46.2
2022-12-27T07:22:00.388Z,46.4
2022-12-27T07:23:00.471Z,46.4
2022-12-27T07:24:00.574Z,46.2
2022-12-27T07:25:00.481Z,46.1
2022-12-27T07:26:00.567Z,46.2
2022-12-27T07:27:00.497Z,46.2
2022-12-27T07:28:00.753Z,46.1
2022-12-27T07:29:00.473Z,46.0
2022-12-27T07:30:00.589Z,45.8
2022-12-27T07:31:00.377Z,45.5
2022-12-27T07:32:00.509Z,45.5
2022-12-27T07:33:00.407Z,45.4
2022-12-27T07:34:00.406Z,45.5
2022-12-27T07:35:00.433Z,45.5
2022-12-27T07:36:00.568Z,45.5
2022-12-27T07:37:00.435Z,45.1
2022-12-27T07:38:00.437Z,45.2
2022-12-27T07:39:00.404Z,45.4
2022-12-27T07:40:00.432Z,45.5
2022-12-27T07:41:00.410Z,45.6
2022-12-27T07:42:04.765Z,45.6
2022-12-27T07:43:00.507Z,45.6
2022-12-27T07:44:00.434Z,45.5
2022-12-27T07:45:00.397Z,45.4
2022-12-27T07:46:00.527Z,45.3
2022-12-27T07:47:00.387Z,45.2
2022-12-27T07:48:00.658Z,45.2
2022-12-27T07:49:00.455Z,45.1
2022-12-27T07:50:00.445Z,45.1
2022-12-27T07:51:00.478Z,44.8
2022-12-27T07:52:00.541Z,45.1
2022-12-27T07:53:00.467Z,45.3
2022-12-27T07:54:00.549Z,45.6
2022-12-27T07:55:00.446Z,45.8
2022-12-27T07:56:00.460Z,46.2
2022-12-27T07:57:00.494Z,46.4
2022-12-27T07:58:00.585Z,46.6
2022-12-27T07:59:00.520Z,46.5
2022-12-27T08:00:00.547Z,46.4
2022-12-27T08:01:00.535Z,46.4
2022-12-27T08:02:00.578Z,46.4
2022-12-27T08:03:00.476Z,46.4
2022-12-27T08:04:00.412Z,46.4
2022-12-27T08:05:00.379Z,46.3
2022-12-27T08:06:00.534Z,46.2
2022-12-27T08:07:00.393Z,46.3
2022-12-27T08:08:00.430Z,46.4
2022-12-27T08:09:00.417Z,46.5
2022-12-27T08:10:00.416Z,46.6
2022-12-27T08:11:05.254Z,46.6
2022-12-27T08:12:00.518Z,46.7
2022-12-27T08:13:00.533Z,46.8
2022-12-27T08:14:00.404Z,46.8
2022-12-27T08:15:00.401Z,46.9
2022-12-27T08:16:00.453Z,46.7
2022-12-27T08:17:00.459Z,46.9
2022-12-27T08:18:00.550Z,47.0
2022-12-27T08:19:06.428Z,47.0
2022-12-27T08:20:00.409Z,46.9
2022-12-27T08:21:00.401Z,46.6
2022-12-27T08:22:00.378Z,46.5
2022-12-27T08:23:00.467Z,46.4
2022-12-27T08:24:00.571Z,46.2
2022-12-27T08:25:00.418Z,46.2
2022-12-27T08:26:00.472Z,46.4
2022-12-27T08:27:00.492Z,46.5
2022-12-27T08:28:00.718Z,45.9
2022-12-27T08:29:00.566Z,45.0
2022-12-27T08:30:00.744Z,43.9
2022-12-27T08:31:00.484Z,43.4
2022-12-27T08:32:00.440Z,42.6
2022-12-27T08:33:00.488Z,41.1
2022-12-27T08:34:00.513Z,39.0
2022-12-27T08:35:18.306Z,37.7
2022-12-27T08:36:04.747Z,36.9
2022-12-27T08:37:00.409Z,34.4
2022-12-27T08:38:00.376Z,32.7
2022-12-27T08:39:00.407Z,33.2
2022-12-27T08:40:02.855Z,31.8
2022-12-27T08:41:00.412Z,30.8
2022-12-27T08:42:00.713Z,29.5
2022-12-27T08:43:00.529Z,28.1
2022-12-27T08:44:00.386Z,28.7
2022-12-27T08:45:00.431Z,27.9
2022-12-27T08:46:00.512Z,27.3
2022-12-27T08:47:00.432Z,26.7
2022-12-27T08:48:00.673Z,27.2
2022-12-27T08:49:00.401Z,25.8
2022-12-27T08:50:00.377Z,26.2
2022-12-27T08:51:00.407Z,26.4
2022-12-27T08:52:00.410Z,26.4
2022-12-27T08:53:00.397Z,26.6
2022-12-27T08:54:00.660Z,26.7
2022-12-27T08:55:00.392Z,26.3
2022-12-27T08:56:00.439Z,26.0
2022-12-27T08:57:00.401Z,25.2
2022-12-27T08:58:00.563Z,25.4
2022-12-27T08:59:00.566Z,24.9
2022-12-27T09:00:00.556Z,24.4
2022-12-27T09:01:00.484Z,24.2
2022-12-27T09:02:00.576Z,24.6
2022-12-27T09:03:00.542Z,23.9
2022-12-27T09:04:00.428Z,23.8
2022-12-27T09:05:00.380Z,22.5
2022-12-27T09:06:00.658Z,24.7
2022-12-27T09:07:00.454Z,24.0
2022-12-27T09:08:00.414Z,23.2
2022-12-27T09:09:00.422Z,23.7
2022-12-27T09:10:00.431Z,23.2
2022-12-27T09:11:00.431Z,23.5
2022-12-27T09:12:03.049Z,23.7
2022-12-27T09:13:00.407Z,22.9
2022-12-27T09:14:00.584Z,22.6
2022-12-27T09:15:00.542Z,22.7
2022-12-27T09:16:00.537Z,22.2
2022-12-27T09:17:00.439Z,22.7
2022-12-27T09:18:00.544Z,22.5
2022-12-27T09:19:00.432Z,23.6
2022-12-27T09:20:00.468Z,24.0
2022-12-27T09:21:00.462Z,22.6
2022-12-27T09:22:00.434Z,22.7
2022-12-27T09:23:00.386Z,22.7
2022-12-27T09:24:00.595Z,23.3
2022-12-27T09:25:00.476Z,24.4
2022-12-27T09:26:00.405Z,25.2
2022-12-27T09:27:00.379Z,25.3
2022-12-27T09:28:00.440Z,25.6
2022-12-27T09:29:00.372Z,25.7
2022-12-27T09:30:00.575Z,24.9
2022-12-27T09:31:00.454Z,24.2
2022-12-27T09:32:00.435Z,26.2
2022-12-27T09:33:00.423Z,26.9
2022-12-27T09:34:00.410Z,26.8
2022-12-27T09:35:00.395Z,27.0
2022-12-27T09:36:00.585Z,27.9
2022-12-27T09:37:00.413Z,28.3
2022-12-27T09:38:00.427Z,27.3
2022-12-27T09:39:00.557Z,27.0
2022-12-27T09:40:00.492Z,27.3
2022-12-27T09:41:00.484Z,26.2
2022-12-27T09:43:15.367Z,26.1
2022-12-27T09:44:00.502Z,27.8
2022-12-27T09:45:00.593Z,28.2
2022-12-27T09:46:00.510Z,27.2
2022-12-27T09:47:00.537Z,27.0
2022-12-27T09:48:00.635Z,26.7
2022-12-27T09:49:00.413Z,27.9
2022-12-27T09:50:00.481Z,28.6
2022-12-27T09:51:00.418Z,28.0
2022-12-27T09:52:00.404Z,27.2
2022-12-27T09:53:00.419Z,27.6
2022-12-27T09:54:00.678Z,27.6
2022-12-27T09:55:04.662Z,26.7
2022-12-27T09:56:00.485Z,27.1
2022-12-27T09:57:18.945Z,27.8
2022-12-27T09:58:00.411Z,28.6
2022-12-27T09:59:00.485Z,29.5
2022-12-27T10:00:00.605Z,29.9
2022-12-27T10:01:00.374Z,30.0
2022-12-27T10:02:00.448Z,29.3
2022-12-27T10:03:00.373Z,29.0
2022-12-27T10:04:00.403Z,28.6
2022-12-27T10:05:19.777Z,28.3
2022-12-27T10:06:00.619Z,27.5
2022-12-27T10:07:00.406Z,26.4
2022-12-27T10:08:00.413Z,25.9
2022-12-27T10:09:00.467Z,24.8
2022-12-27T10:10:00.379Z,25.2
2022-12-27T10:11:00.379Z,25.9
2022-12-27T10:12:00.566Z,26.6
2022-12-27T10:13:00.403Z,27.4
2022-12-27T10:14:00.413Z,27.9
2022-12-27T10:15:00.670Z,28.4
2022-12-27T10:16:00.425Z,29.4
2022-12-27T10:17:00.449Z,30.2
2022-12-27T10:18:00.537Z,31.1
2022-12-27T10:19:00.419Z,31.9
2022-12-27T10:20:00.379Z,32.6
2022-12-27T10:21:00.407Z,32.9
2022-12-27T10:22:00.403Z,33.3
2022-12-27T10:23:05.981Z,33.8
2022-12-27T10:24:00.646Z,34.1
2022-12-27T10:25:00.431Z,34.3
2022-12-27T10:26:00.382Z,34.5
2022-12-27T10:27:00.405Z,34.8
2022-12-27T10:28:00.440Z,35.2
2022-12-27T10:29:00.411Z,35.4
2022-12-27T10:30:00.590Z,35.6
2022-12-27T10:31:00.444Z,35.9
2022-12-27T10:32:00.477Z,35.9
2022-12-27T10:33:00.467Z,36.1
2022-12-27T10:34:00.442Z,36.2
2022-12-27T10:35:00.418Z,36.4
2022-12-27T10:36:00.572Z,36.7
2022-12-27T10:37:00.388Z,36.5
2022-12-27T10:38:00.390Z,36.1
2022-12-27T10:39:00.438Z,35.6
2022-12-27T10:40:00.406Z,33.8
2022-12-27T10:41:00.405Z,32.3
2022-12-27T10:42:00.549Z,29.5
2022-12-27T10:43:00.447Z,26.8
2022-12-27T10:44:00.511Z,26.0
2022-12-27T10:45:00.525Z,25.4
2022-12-27T10:46:00.451Z,26.2
2022-12-27T10:47:00.464Z,26.2
2022-12-27T10:48:00.701Z,26.4
2022-12-27T10:49:21.386Z,26.3
2022-12-27T10:50:00.478Z,26.4
2022-12-27T10:51:00.418Z,26.7
2022-12-27T10:52:00.389Z,27.2
2022-12-27T10:53:00.377Z,28.0
2022-12-27T10:54:00.604Z,28.7
2022-12-27T10:55:00.407Z,28.8
2022-12-27T10:56:00.420Z,29.1
2022-12-27T10:57:00.409Z,29.4
2022-12-27T10:58:00.420Z,30.2
2022-12-27T10:59:00.401Z,30.8
2022-12-27T11:00:00.633Z,31.7
2022-12-27T11:01:00.556Z,32.5
2022-12-27T11:02:00.772Z,33.1
2022-12-27T11:03:00.452Z,33.5
2022-12-27T11:04:00.407Z,33.8
2022-12-27T11:05:00.467Z,34.1
2022-12-27T11:06:00.617Z,34.4
2022-12-27T11:07:00.453Z,34.7
2022-12-27T11:08:00.532Z,34.9
2022-12-27T11:09:00.411Z,35.1
2022-12-27T11:10:00.415Z,35.4
2022-12-27T11:11:00.410Z,35.4
2022-12-27T11:12:00.627Z,35.5
2022-12-27T11:13:00.388Z,35.6
2022-12-27T11:14:00.446Z,35.5
2022-12-27T11:15:00.567Z,35.3
2022-12-27T11:16:00.421Z,35.5
2022-12-27T11:17:00.431Z,36.1
2022-12-27T11:18:00.535Z,36.5
2022-12-27T11:19:00.462Z,36.8
2022-12-27T11:20:00.749Z,37.0
2022-12-27T11:21:00.449Z,37.4
2022-12-27T11:22:00.433Z,37.8
2022-12-27T11:23:00.437Z,38.1
2022-12-27T11:24:00.650Z,38.4
2022-12-27T11:25:00.465Z,38.5
2022-12-27T11:26:00.547Z,38.5
2022-12-27T11:27:00.398Z,38.3
2022-12-27T11:28:00.424Z,38.5
2022-12-27T11:29:00.480Z,38.8
2022-12-27T11:30:00.545Z,39.4
2022-12-27T11:31:00.555Z,39.8
2022-12-27T11:32:00.399Z,40.1
2022-12-27T11:33:00.457Z,40.7
2022-12-27T11:34:00.490Z,41.0
2022-12-27T11:35:00.492Z,41.1
2022-12-27T11:36:00.578Z,41.1
2022-12-27T11:37:00.419Z,41.2
2022-12-27T11:38:00.415Z,41.3
2022-12-27T11:39:00.440Z,41.7
2022-12-27T11:40:00.404Z,41.9
2022-12-27T11:41:00.412Z,41.9
2022-12-27T11:42:00.560Z,42.0
2022-12-27T11:43:00.423Z,42.4
2022-12-27T11:44:00.502Z,43.0
2022-12-27T11:45:00.439Z,42.8
2022-12-27T11:46:00.597Z,43.3
2022-12-27T11:47:00.451Z,43.4
2022-12-27T11:48:00.525Z,43.5
2022-12-27T11:49:00.568Z,43.3
2022-12-27T11:50:00.543Z,43.4
2022-12-27T11:51:00.522Z,43.5
2022-12-27T11:52:00.471Z,43.9
2022-12-27T11:53:00.497Z,44.2
2022-12-27T11:54:00.653Z,44.4
2022-12-27T11:55:00.403Z,44.4
2022-12-27T11:56:00.434Z,44.2
2022-12-27T11:57:00.459Z,44.1
2022-12-27T11:58:00.409Z,44.1
2022-12-27T11:59:00.434Z,43.8
2022-12-27T12:00:00.528Z,43.4
2022-12-27T12:01:05.260Z,43.3
2022-12-27T12:02:00.813Z,43.1
2022-12-27T12:03:00.549Z,43.0
2022-12-27T12:04:00.421Z,43.0
2022-12-27T12:05:00.381Z,43.1
2022-12-27T12:06:00.524Z,43.1
2022-12-27T12:07:00.441Z,43.2
2022-12-27T12:08:00.402Z,43.3
2022-12-27T12:09:00.439Z,43.6
2022-12-27T12:10:00.439Z,43.7
2022-12-27T12:11:00.413Z,44.2
2022-12-27T12:12:00.652Z,44.4
2022-12-27T12:13:00.451Z,44.6
2022-12-27T12:14:00.514Z,44.7
2022-12-27T12:15:00.389Z,45.0
2022-12-27T12:16:00.481Z,45.5
2022-12-27T12:17:00.591Z,45.4
2022-12-27T12:18:00.549Z,45.3
2022-12-27T12:19:00.450Z,45.2
2022-12-27T12:20:00.407Z,45.3
2022-12-27T12:21:00.447Z,45.5
2022-12-27T12:22:00.455Z,45.6
2022-12-27T12:23:00.483Z,45.8
2022-12-27T12:24:00.513Z,45.9
2022-12-27T12:25:00.385Z,45.9
2022-12-27T12:26:00.413Z,46.1
2022-12-27T12:27:00.387Z,46.1
2022-12-27T12:28:00.681Z,46.3
2022-12-27T12:29:01.041Z,46.3
2022-12-27T12:30:00.538Z,46.5
2022-12-27T12:31:00.399Z,46.5
2022-12-27T12:32:00.651Z,46.4
2022-12-27T12:33:00.377Z,46.3
2022-12-27T12:34:00.423Z,46.2
2022-12-27T12:35:00.387Z,46.1
2022-12-27T12:36:00.550Z,46.1
2022-12-27T12:37:00.433Z,46.1
2022-12-27T12:38:00.397Z,46.3
2022-12-27T12:39:00.411Z,46.3
2022-12-27T12:40:00.476Z,46.3
2022-12-27T12:41:00.469Z,46.3
2022-12-27T12:42:00.587Z,46.4
2022-12-27T12:43:00.545Z,46.4
2022-12-27T12:44:00.448Z,46.3
2022-12-27T12:45:00.476Z,46.4
2022-12-27T12:46:00.572Z,46.5
2022-12-27T12:47:00.663Z,46.5
2022-12-27T12:48:00.568Z,46.5
2022-12-27T12:49:00.433Z,46.7
2022-12-27T12:50:00.497Z,46.7
2022-12-27T12:51:00.374Z,46.9
2022-12-27T12:52:00.405Z,46.9
2022-12-27T12:53:00.404Z,47.0
2022-12-27T12:54:00.569Z,47.2
2022-12-27T12:55:00.388Z,47.8
2022-12-27T12:56:00.440Z,48.2
2022-12-27T12:57:00.474Z,48.0
2022-12-27T12:58:00.511Z,48.0
2022-12-27T12:59:00.521Z,47.9
2022-12-27T13:00:00.931Z,48.0
2022-12-27T13:01:00.526Z,48.0
2022-12-27T13:02:00.745Z,48.1
2022-12-27T13:03:01.050Z,48.0
2022-12-27T13:04:00.488Z,48.1
2022-12-27T13:05:00.445Z,48.3
2022-12-27T13:06:00.665Z,48.4
2022-12-27T13:07:00.478Z,48.5
2022-12-27T13:08:00.456Z,48.5
2022-12-27T13:09:00.484Z,48.6
2022-12-27T13:10:00.461Z,48.7
2022-12-27T13:11:00.419Z,48.6
2022-12-27T13:12:00.859Z,48.5
2022-12-27T13:13:00.514Z,48.5
2022-12-27T13:14:00.463Z,48.4
2022-12-27T13:15:00.592Z,48.4
2022-12-27T13:16:00.420Z,48.4
2022-12-27T13:17:00.568Z,48.4
2022-12-27T13:18:00.668Z,48.5
2022-12-27T13:19:00.495Z,48.6
2022-12-27T13:20:00.451Z,48.5
2022-12-27T13:21:00.416Z,48.6
2022-12-27T13:22:00.605Z,48.4
2022-12-27T13:23:00.388Z,47.9
2022-12-27T13:24:00.585Z,47.7